sensor_id;sensor_type;location;lat;lon;timestamp;pressure;altitude;pressure_sealevel;temperature;humidity
25420;BME280;13354;48.174;11.566;2022-08-01T00:02:00;95685.56;;;23.75;50.29
25420;BME280;13354;48.174;11.566;2022-08-01T00:04:25;95686.38;;;23.66;50.59
25420;BME280;13354;48.174;11.566;2022-08-01T00:06:50;95692.56;;;23.71;50.76
25420;BME280;13354;48.174;11.566;2022-08-01T00:09:15;95695.03;;;23.57;51.13
25420;BME280;13354;48.174;11.566;2022-08-01T00:11:41;95692.88;;;23.70;51.20
25420;BME280;13354;48.174;11.566;2022-08-01T00:14:06;95694.75;;;23.59;51.38
25420;BME280;13354;48.174;11.566;2022-08-01T00:16:34;95680.97;;;23.60;51.34
25420;BME280;13354;48.174;11.566;2022-08-01T00:18:59;95693.44;;;23.46;51.37
25420;BME280;13354;48.174;11.566;2022-08-01T00:21:24;95685.88;;;23.43;51.37
25420;BME280;13354;48.174;11.566;2022-08-01T00:23:49;95686.97;;;23.37;51.80
25420;BME280;13354;48.174;11.566;2022-08-01T00:26:15;95691.00;;;23.39;51.45
25420;BME280;13354;48.174;11.566;2022-08-01T00:28:40;95695.34;;;23.46;51.44
25420;BME280;13354;48.174;11.566;2022-08-01T00:31:06;95689.38;;;23.49;51.27
25420;BME280;13354;48.174;11.566;2022-08-01T00:33:31;95688.88;;;23.21;51.85
25420;BME280;13354;48.174;11.566;2022-08-01T00:35:56;95697.25;;;23.35;51.50
25420;BME280;13354;48.174;11.566;2022-08-01T00:38:21;95702.38;;;23.26;51.70
25420;BME280;13354;48.174;11.566;2022-08-01T00:40:47;95696.16;;;23.26;51.72
25420;BME280;13354;48.174;11.566;2022-08-01T00:43:12;95699.41;;;23.18;51.84
25420;BME280;13354;48.174;11.566;2022-08-01T00:45:37;95696.97;;;23.21;51.78
25420;BME280;13354;48.174;11.566;2022-08-01T00:48:03;95692.91;;;23.08;52.25
25420;BME280;13354;48.174;11.566;2022-08-01T00:50:28;95693.72;;;23.04;52.13
25420;BME280;13354;48.174;11.566;2022-08-01T00:52:54;95693.47;;;23.31;51.47
25420;BME280;13354;48.174;11.566;2022-08-01T00:55:19;95695.63;;;23.08;51.87
25420;BME280;13354;48.174;11.566;2022-08-01T00:57:45;95697.25;;;23.09;51.89
25420;BME280;13354;48.174;11.566;2022-08-01T01:00:11;95697.78;;;23.06;51.96
25420;BME280;13354;48.174;11.566;2022-08-01T01:02:36;95691.31;;;23.02;52.08
25420;BME280;13354;48.174;11.566;2022-08-01T01:05:02;95697.75;;;22.86;52.61
25420;BME280;13354;48.174;11.566;2022-08-01T01:07:34;95692.91;;;22.88;52.28
25420;BME280;13354;48.174;11.566;2022-08-01T01:15:17;95695.38;;;22.95;52.05
25420;BME280;13354;48.174;11.566;2022-08-01T01:20:37;95699.63;;;22.85;52.24
25420;BME280;13354;48.174;11.566;2022-08-01T01:23:10;95705.84;;;22.81;52.43
25420;BME280;13354;48.174;11.566;2022-08-01T01:30:28;95705.84;;;22.81;52.29
25420;BME280;13354;48.174;11.566;2022-08-01T01:32:55;95711.22;;;22.65;52.37
25420;BME280;13354;48.174;11.566;2022-08-01T01:35:24;95708.25;;;22.62;52.55
25420;BME280;13354;48.174;11.566;2022-08-01T01:37:52;95715.75;;;22.50;52.86
25420;BME280;13354;48.174;11.566;2022-08-01T01:40:20;95708.78;;;22.59;52.42
25420;BME280;13354;48.174;11.566;2022-08-01T01:42:46;95706.63;;;22.66;52.26
25420;BME280;13354;48.174;11.566;2022-08-01T01:45:11;95711.75;;;22.62;52.30
25420;BME280;13354;48.174;11.566;2022-08-01T01:47:36;95707.66;;;22.50;52.76
25420;BME280;13354;48.174;11.566;2022-08-01T01:50:03;95705.25;;;22.43;53.09
25420;BME280;13354;48.174;11.566;2022-08-01T01:52:28;95708.19;;;22.36;53.09
25420;BME280;13354;48.174;11.566;2022-08-01T01:54:54;95710.88;;;22.41;52.68
25420;BME280;13354;48.174;11.566;2022-08-01T01:57:21;95704.66;;;22.26;52.97
25420;BME280;13354;48.174;11.566;2022-08-01T01:59:46;95706.78;;;22.24;53.17
25420;BME280;13354;48.174;11.566;2022-08-01T02:02:13;95705.69;;;22.19;53.35
25420;BME280;13354;48.174;11.566;2022-08-01T02:04:42;95710.31;;;22.24;53.12
25420;BME280;13354;48.174;11.566;2022-08-01T02:07:09;95710.84;;;22.21;52.99
25420;BME280;13354;48.174;11.566;2022-08-01T02:09:35;95715.44;;;22.31;52.69
25420;BME280;13354;48.174;11.566;2022-08-01T02:12:02;95723.81;;;22.34;52.88
25420;BME280;13354;48.174;11.566;2022-08-01T02:14:28;95717.09;;;22.42;52.36
25420;BME280;13354;48.174;11.566;2022-08-01T02:16:54;95721.97;;;22.40;52.41
25420;BME280;13354;48.174;11.566;2022-08-01T02:19:19;95722.19;;;22.28;52.77
25420;BME280;13354;48.174;11.566;2022-08-01T02:21:50;95725.47;;;22.40;52.84
25420;BME280;13354;48.174;11.566;2022-08-01T02:26:49;95721.09;;;22.24;52.71
25420;BME280;13354;48.174;11.566;2022-08-01T02:29:17;95717.84;;;22.27;52.56
25420;BME280;13354;48.174;11.566;2022-08-01T02:31:44;95717.28;;;22.20;52.55
25420;BME280;13354;48.174;11.566;2022-08-01T02:34:13;95716.75;;;22.18;52.73
25420;BME280;13354;48.174;11.566;2022-08-01T02:36:40;95716.41;;;22.04;53.17
25420;BME280;13354;48.174;11.566;2022-08-01T02:39:08;95716.16;;;22.06;52.91
25420;BME280;13354;48.174;11.566;2022-08-01T02:41:33;95719.38;;;22.08;53.13
25420;BME280;13354;48.174;11.566;2022-08-01T02:44:02;95721.84;;;22.09;52.98
25420;BME280;13354;48.174;11.566;2022-08-01T02:46:33;95726.16;;;22.10;53.14
25420;BME280;13354;48.174;11.566;2022-08-01T02:49:00;95717.25;;;22.10;52.84
25420;BME280;13354;48.174;11.566;2022-08-01T02:51:27;95726.69;;;22.12;52.98
25420;BME280;13354;48.174;11.566;2022-08-01T02:53:53;95722.06;;;22.03;52.86
25420;BME280;13354;48.174;11.566;2022-08-01T02:56:19;95728.22;;;21.98;52.92
25420;BME280;13354;48.174;11.566;2022-08-01T02:58:46;95724.72;;;21.92;53.14
25420;BME280;13354;48.174;11.566;2022-08-01T03:01:14;95729.63;;;22.06;52.90
25420;BME280;13354;48.174;11.566;2022-08-01T03:03:40;95727.47;;;22.08;52.60
25420;BME280;13354;48.174;11.566;2022-08-01T03:06:05;95735.53;;;22.03;52.64
25420;BME280;13354;48.174;11.566;2022-08-01T03:08:31;95736.06;;;22.00;53.01
25420;BME280;13354;48.174;11.566;2022-08-01T03:10:57;95735.22;;;21.89;53.40
25420;BME280;13354;48.174;11.566;2022-08-01T03:13:24;95731.13;;;21.86;53.32
25420;BME280;13354;48.174;11.566;2022-08-01T03:15:50;95740.00;;;21.77;53.63
25420;BME280;13354;48.174;11.566;2022-08-01T03:18:16;95735.63;;;21.70;53.99
25420;BME280;13354;48.174;11.566;2022-08-01T03:20:42;95738.13;;;21.77;53.56
25420;BME280;13354;48.174;11.566;2022-08-01T03:23:08;95737.84;;;21.79;53.52
25420;BME280;13354;48.174;11.566;2022-08-01T03:25:36;95735.66;;;21.76;53.31
25420;BME280;13354;48.174;11.566;2022-08-01T03:28:04;95740.56;;;21.84;53.20
25420;BME280;13354;48.174;11.566;2022-08-01T03:30:31;95738.16;;;21.87;52.95
25420;BME280;13354;48.174;11.566;2022-08-01T03:32:57;95743.13;;;21.63;53.60
25420;BME280;13354;48.174;11.566;2022-08-01T03:35:23;95747.22;;;21.71;53.60
25420;BME280;13354;48.174;11.566;2022-08-01T03:37:52;95742.84;;;21.60;53.64
25420;BME280;13354;48.174;11.566;2022-08-01T03:40:32;95746.41;;;21.65;53.44
25420;BME280;13354;48.174;11.566;2022-08-01T03:43:02;95747.81;;;21.78;53.23
25420;BME280;13354;48.174;11.566;2022-08-01T03:45:34;95753.03;;;21.53;53.89
25420;BME280;13354;48.174;11.566;2022-08-01T03:48:01;95756.75;;;21.46;53.84
25420;BME280;13354;48.174;11.566;2022-08-01T03:50:27;95754.06;;;21.46;54.12
25420;BME280;13354;48.174;11.566;2022-08-01T03:52:53;95762.13;;;21.41;54.14
25420;BME280;13354;48.174;11.566;2022-08-01T03:55:20;95765.91;;;21.45;54.40
25420;BME280;13354;48.174;11.566;2022-08-01T03:57:46;95760.38;;;21.62;53.68
25420;BME280;13354;48.174;11.566;2022-08-01T04:00:13;95767.25;;;21.43;54.52
25420;BME280;13354;48.174;11.566;2022-08-01T04:02:43;95767.59;;;21.57;53.79
25420;BME280;13354;48.174;11.566;2022-08-01T04:05:09;95771.00;;;21.42;54.48
25420;BME280;13354;48.174;11.566;2022-08-01T04:07:34;95771.31;;;21.45;54.38
25420;BME280;13354;48.174;11.566;2022-08-01T04:10:04;95767.25;;;21.43;54.27
25420;BME280;13354;48.174;11.566;2022-08-01T04:12:29;95766.97;;;21.39;54.52
25420;BME280;13354;48.174;11.566;2022-08-01T04:14:54;95768.53;;;21.35;54.73
25420;BME280;13354;48.174;11.566;2022-08-01T04:17:20;95772.34;;;21.39;54.54
25420;BME280;13354;48.174;11.566;2022-08-01T04:19:45;95776.91;;;21.39;54.54
25420;BME280;13354;48.174;11.566;2022-08-01T04:22:11;95784.06;;;21.28;54.92
25420;BME280;13354;48.174;11.566;2022-08-01T04:24:38;95787.81;;;21.27;54.87
25420;BME280;13354;48.174;11.566;2022-08-01T04:27:05;95795.13;;;21.32;54.74
25420;BME280;13354;48.174;11.566;2022-08-01T04:29:31;95792.66;;;21.25;55.14
25420;BME280;13354;48.174;11.566;2022-08-01T04:31:57;95788.81;;;21.43;54.44
25420;BME280;13354;48.174;11.566;2022-08-01T04:34:25;95795.97;;;21.32;54.78
25420;BME280;13354;48.174;11.566;2022-08-01T04:36:51;95797.41;;;21.40;54.43
25420;BME280;13354;48.174;11.566;2022-08-01T04:39:17;95794.91;;;21.33;54.68
25420;BME280;13354;48.174;11.566;2022-08-01T04:41:44;95794.53;;;21.52;54.01
25420;BME280;13354;48.174;11.566;2022-08-01T04:44:11;95801.34;;;21.32;54.82
25420;BME280;13354;48.174;11.566;2022-08-01T04:46:37;95804.44;;;21.46;54.18
25420;BME280;13354;48.174;11.566;2022-08-01T04:49:04;95802.34;;;21.53;54.31
25420;BME280;13354;48.174;11.566;2022-08-01T04:51:30;95809.78;;;21.41;54.48
25420;BME280;13354;48.174;11.566;2022-08-01T04:53:55;95800.16;;;21.50;54.39
25420;BME280;13354;48.174;11.566;2022-08-01T04:56:22;95810.41;;;21.53;54.14
25420;BME280;13354;48.174;11.566;2022-08-01T04:58:47;95798.06;;;21.57;53.85
25420;BME280;13354;48.174;11.566;2022-08-01T05:01:13;95800.41;;;21.43;54.24
25420;BME280;13354;48.174;11.566;2022-08-01T05:03:38;95803.44;;;21.57;54.14
25420;BME280;13354;48.174;11.566;2022-08-01T05:06:03;95807.41;;;21.50;54.28
25420;BME280;13354;48.174;11.566;2022-08-01T05:08:29;95813.91;;;21.54;54.45
25420;BME280;13354;48.174;11.566;2022-08-01T05:10:54;95811.06;;;21.65;53.87
25420;BME280;13354;48.174;11.566;2022-08-01T05:13:20;95810.75;;;21.62;54.33
25420;BME280;13354;48.174;11.566;2022-08-01T05:15:45;95818.09;;;21.71;53.82
25420;BME280;13354;48.174;11.566;2022-08-01T05:18:10;95814.56;;;21.66;53.73
25420;BME280;13354;48.174;11.566;2022-08-01T05:20:36;95813.50;;;21.72;53.70
25420;BME280;13354;48.174;11.566;2022-08-01T05:23:02;95815.31;;;21.61;54.38
25420;BME280;13354;48.174;11.566;2022-08-01T05:25:27;95814.00;;;21.64;54.01
25420;BME280;13354;48.174;11.566;2022-08-01T05:27:53;95821.88;;;21.70;53.86
25420;BME280;13354;48.174;11.566;2022-08-01T05:30:18;95826.06;;;21.93;53.35
25420;BME280;13354;48.174;11.566;2022-08-01T05:32:43;95826.03;;;21.88;53.44
25420;BME280;13354;48.174;11.566;2022-08-01T05:35:08;95829.03;;;21.97;53.11
25420;BME280;13354;48.174;11.566;2022-08-01T05:37:34;95832.63;;;22.08;52.88
25420;BME280;13354;48.174;11.566;2022-08-01T05:39:59;95837.75;;;22.09;53.00
25420;BME280;13354;48.174;11.566;2022-08-01T05:42:24;95834.59;;;22.17;52.49
25420;BME280;13354;48.174;11.566;2022-08-01T05:44:49;95838.31;;;22.11;52.88
25420;BME280;13354;48.174;11.566;2022-08-01T05:47:15;95844.22;;;22.08;53.28
25420;BME280;13354;48.174;11.566;2022-08-01T05:49:41;95840.81;;;22.23;52.79
25420;BME280;13354;48.174;11.566;2022-08-01T05:52:06;95833.28;;;22.25;52.72
25420;BME280;13354;48.174;11.566;2022-08-01T05:54:32;95838.13;;;22.23;52.76
25420;BME280;13354;48.174;11.566;2022-08-01T05:56:57;95843.50;;;22.23;52.44
25420;BME280;13354;48.174;11.566;2022-08-01T06:01:51;95837.38;;;22.38;52.06
25420;BME280;13354;48.174;11.566;2022-08-01T06:04:16;95836.53;;;22.27;52.62
25420;BME280;13354;48.174;11.566;2022-08-01T06:06:42;95834.91;;;22.26;52.50
25420;BME280;13354;48.174;11.566;2022-08-01T06:09:07;95837.03;;;22.19;52.77
25420;BME280;13354;48.174;11.566;2022-08-01T06:11:32;95847.88;;;22.29;52.73
25420;BME280;13354;48.174;11.566;2022-08-01T06:13:57;95844.59;;;22.22;52.51
25420;BME280;13354;48.174;11.566;2022-08-01T06:16:23;95838.63;;;22.15;52.71
25420;BME280;13354;48.174;11.566;2022-08-01T06:18:48;95847.81;;;22.19;52.39
25420;BME280;13354;48.174;11.566;2022-08-01T06:21:13;95849.88;;;22.07;53.49
25420;BME280;13354;48.174;11.566;2022-08-01T06:23:38;95851.53;;;22.13;53.21
25420;BME280;13354;48.174;11.566;2022-08-01T06:26:06;95845.97;;;22.30;52.82
25420;BME280;13354;48.174;11.566;2022-08-01T06:28:31;95852.69;;;22.27;53.09
25420;BME280;13354;48.174;11.566;2022-08-01T06:30:56;95864.06;;;22.29;53.20
25420;BME280;13354;48.174;11.566;2022-08-01T06:33:24;95852.25;;;22.40;52.71
25420;BME280;13354;48.174;11.566;2022-08-01T06:35:49;95856.06;;;22.50;52.50
25420;BME280;13354;48.174;11.566;2022-08-01T06:38:14;95858.81;;;22.60;52.40
25420;BME280;13354;48.174;11.566;2022-08-01T06:40:39;95858.28;;;22.63;52.43
25420;BME280;13354;48.174;11.566;2022-08-01T06:43:04;95855.38;;;22.80;52.35
25420;BME280;13354;48.174;11.566;2022-08-01T06:45:30;95855.75;;;23.04;51.90
25420;BME280;13354;48.174;11.566;2022-08-01T06:47:55;95867.66;;;23.23;50.85
25420;BME280;13354;48.174;11.566;2022-08-01T06:50:20;95866.88;;;23.33;50.69
25420;BME280;13354;48.174;11.566;2022-08-01T06:52:45;95860.97;;;23.46;50.33
25420;BME280;13354;48.174;11.566;2022-08-01T06:55:11;95862.06;;;23.81;49.74
25420;BME280;13354;48.174;11.566;2022-08-01T06:57:36;95863.66;;;24.18;48.70
25420;BME280;13354;48.174;11.566;2022-08-01T07:00:05;95858.69;;;24.61;47.57
25420;BME280;13354;48.174;11.566;2022-08-01T07:02:33;95854.03;;;25.31;46.62
25420;BME280;13354;48.174;11.566;2022-08-01T07:04:58;95850.03;;;25.97;45.31
25420;BME280;13354;48.174;11.566;2022-08-01T07:07:25;95843.31;;;26.47;43.89
25420;BME280;13354;48.174;11.566;2022-08-01T07:09:50;95840.63;;;27.28;42.26
25420;BME280;13354;48.174;11.566;2022-08-01T07:12:15;95850.38;;;27.67;41.12
25420;BME280;13354;48.174;11.566;2022-08-01T07:14:40;95849.34;;;28.14;40.48
25420;BME280;13354;48.174;11.566;2022-08-01T07:17:06;95843.84;;;28.75;39.62
25420;BME280;13354;48.174;11.566;2022-08-01T07:19:31;95839.50;;;29.01;38.61
25420;BME280;13354;48.174;11.566;2022-08-01T07:21:56;95846.19;;;29.09;38.49
25420;BME280;13354;48.174;11.566;2022-08-01T07:24:21;95837.13;;;30.03;37.20
25420;BME280;13354;48.174;11.566;2022-08-01T07:26:47;95844.91;;;29.88;37.26
25420;BME280;13354;48.174;11.566;2022-08-01T07:29:13;95847.41;;;29.39;37.70
25420;BME280;13354;48.174;11.566;2022-08-01T07:31:38;95837.56;;;29.97;36.69
25420;BME280;13354;48.174;11.566;2022-08-01T07:34:03;95843.19;;;30.23;36.23
25420;BME280;13354;48.174;11.566;2022-08-01T07:36:28;95840.47;;;30.54;35.93
25420;BME280;13354;48.174;11.566;2022-08-01T07:38:54;95843.53;;;30.61;36.02
25420;BME280;13354;48.174;11.566;2022-08-01T07:41:19;95838.28;;;30.73;35.53
25420;BME280;13354;48.174;11.566;2022-08-01T07:43:45;95839.81;;;30.97;35.25
25420;BME280;13354;48.174;11.566;2022-08-01T07:46:10;95841.09;;;30.99;35.17
25420;BME280;13354;48.174;11.566;2022-08-01T07:48:35;95842.72;;;31.00;35.02
25420;BME280;13354;48.174;11.566;2022-08-01T07:51:00;95837.84;;;30.40;35.79
25420;BME280;13354;48.174;11.566;2022-08-01T07:53:25;95842.69;;;30.83;35.54
25420;BME280;13354;48.174;11.566;2022-08-01T07:55:51;95835.44;;;30.78;35.67
25420;BME280;13354;48.174;11.566;2022-08-01T07:58:16;95840.00;;;31.00;35.65
25420;BME280;13354;48.174;11.566;2022-08-01T08:00:42;95848.28;;;30.38;36.54
25420;BME280;13354;48.174;11.566;2022-08-01T08:03:07;95837.50;;;30.82;35.97
25420;BME280;13354;48.174;11.566;2022-08-01T08:05:32;95839.97;;;30.92;35.69
25420;BME280;13354;48.174;11.566;2022-08-01T08:08:01;95844.47;;;30.88;35.68
25420;BME280;13354;48.174;11.566;2022-08-01T08:10:26;95833.06;;;30.94;35.79
25420;BME280;13354;48.174;11.566;2022-08-01T08:12:52;95835.16;;;30.97;35.83
25420;BME280;13354;48.174;11.566;2022-08-01T08:15:17;95838.63;;;30.41;36.41
25420;BME280;13354;48.174;11.566;2022-08-01T08:17:42;95830.63;;;30.44;36.74
25420;BME280;13354;48.174;11.566;2022-08-01T08:20:07;95822.31;;;30.58;36.41
25420;BME280;13354;48.174;11.566;2022-08-01T08:22:33;95839.19;;;30.20;36.83
25420;BME280;13354;48.174;11.566;2022-08-01T08:24:59;95845.63;;;30.24;37.29
25420;BME280;13354;48.174;11.566;2022-08-01T08:27:24;95836.28;;;29.94;37.54
25420;BME280;13354;48.174;11.566;2022-08-01T08:29:49;95832.00;;;29.57;37.81
25420;BME280;13354;48.174;11.566;2022-08-01T08:32:14;95826.44;;;29.26;38.98
25420;BME280;13354;48.174;11.566;2022-08-01T08:34:40;95832.41;;;29.50;38.39
25420;BME280;13354;48.174;11.566;2022-08-01T08:37:05;95832.56;;;29.09;39.13
25420;BME280;13354;48.174;11.566;2022-08-01T08:39:30;95829.88;;;29.18;38.90
25420;BME280;13354;48.174;11.566;2022-08-01T08:41:57;95826.41;;;29.40;39.11
25420;BME280;13354;48.174;11.566;2022-08-01T08:44:22;95816.41;;;28.85;40.17
25420;BME280;13354;48.174;11.566;2022-08-01T08:46:49;95820.38;;;29.51;38.67
25420;BME280;13354;48.174;11.566;2022-08-01T08:49:17;95816.72;;;29.56;38.89
25420;BME280;13354;48.174;11.566;2022-08-01T08:51:43;95829.72;;;29.73;38.09
25420;BME280;13354;48.174;11.566;2022-08-01T08:54:10;95827.66;;;29.78;37.84
25420;BME280;13354;48.174;11.566;2022-08-01T08:56:36;95825.13;;;29.59;38.48
25420;BME280;13354;48.174;11.566;2022-08-01T08:59:02;95826.47;;;29.93;37.80
25420;BME280;13354;48.174;11.566;2022-08-01T09:01:28;95837.28;;;29.98;37.77
25420;BME280;13354;48.174;11.566;2022-08-01T09:03:53;95829.53;;;29.69;38.02
25420;BME280;13354;48.174;11.566;2022-08-01T09:06:19;95828.13;;;29.35;38.64
25420;BME280;13354;48.174;11.566;2022-08-01T09:08:44;95819.06;;;29.63;38.38
25420;BME280;13354;48.174;11.566;2022-08-01T09:11:09;95821.94;;;29.44;39.07
25420;BME280;13354;48.174;11.566;2022-08-01T09:13:35;95810.91;;;29.71;37.88
25420;BME280;13354;48.174;11.566;2022-08-01T09:16:00;95824.03;;;29.83;37.52
25420;BME280;13354;48.174;11.566;2022-08-01T09:18:38;95831.03;;;29.75;38.47
25420;BME280;13354;48.174;11.566;2022-08-01T09:23:35;95825.75;;;29.20;38.46
25420;BME280;13354;48.174;11.566;2022-08-01T09:26:01;95830.03;;;28.85;39.21
25420;BME280;13354;48.174;11.566;2022-08-01T09:28:27;95827.41;;;28.80;39.06
25420;BME280;13354;48.174;11.566;2022-08-01T09:30:52;95822.03;;;28.88;39.39
25420;BME280;13354;48.174;11.566;2022-08-01T09:33:18;95825.88;;;29.01;39.33
25420;BME280;13354;48.174;11.566;2022-08-01T09:35:43;95835.19;;;28.59;40.58
25420;BME280;13354;48.174;11.566;2022-08-01T09:38:20;95816.59;;;29.02;39.42
25420;BME280;13354;48.174;11.566;2022-08-01T09:40:53;95818.78;;;29.14;38.73
25420;BME280;13354;48.174;11.566;2022-08-01T09:43:19;95819.94;;;29.35;38.73
25420;BME280;13354;48.174;11.566;2022-08-01T09:45:45;95820.19;;;29.25;38.98
25420;BME280;13354;48.174;11.566;2022-08-01T09:48:10;95813.75;;;29.07;38.53
25420;BME280;13354;48.174;11.566;2022-08-01T09:50:40;95822.84;;;29.03;38.59
25420;BME280;13354;48.174;11.566;2022-08-01T09:53:06;95814.78;;;28.84;38.64
25420;BME280;13354;48.174;11.566;2022-08-01T09:55:31;95823.78;;;28.71;39.36
25420;BME280;13354;48.174;11.566;2022-08-01T09:57:56;95814.53;;;28.94;37.88
25420;BME280;13354;48.174;11.566;2022-08-01T10:00:25;95816.34;;;29.12;38.20
25420;BME280;13354;48.174;11.566;2022-08-01T10:02:50;95812.75;;;29.40;37.52
25420;BME280;13354;48.174;11.566;2022-08-01T10:05:16;95812.03;;;29.11;38.03
25420;BME280;13354;48.174;11.566;2022-08-01T10:08:00;95810.59;;;29.50;38.39
25420;BME280;13354;48.174;11.566;2022-08-01T10:10:26;95815.44;;;29.53;37.66
25420;BME280;13354;48.174;11.566;2022-08-01T10:12:51;95810.00;;;29.76;37.19
25420;BME280;13354;48.174;11.566;2022-08-01T10:15:17;95800.81;;;29.94;37.44
25420;BME280;13354;48.174;11.566;2022-08-01T10:17:46;95797.19;;;29.85;37.39
25420;BME280;13354;48.174;11.566;2022-08-01T10:20:15;95798.38;;;29.48;38.38
25420;BME280;13354;48.174;11.566;2022-08-01T10:22:41;95801.53;;;30.08;37.37
25420;BME280;13354;48.174;11.566;2022-08-01T10:25:07;95796.06;;;30.08;37.44
25420;BME280;13354;48.174;11.566;2022-08-01T10:27:33;95802.00;;;30.11;37.35
25420;BME280;13354;48.174;11.566;2022-08-01T10:30:02;95797.47;;;30.28;36.63
25420;BME280;13354;48.174;11.566;2022-08-01T10:32:31;95789.63;;;30.36;36.36
25420;BME280;13354;48.174;11.566;2022-08-01T10:34:57;95803.81;;;30.55;36.18
25420;BME280;13354;48.174;11.566;2022-08-01T10:37:23;95787.78;;;30.62;35.60
25420;BME280;13354;48.174;11.566;2022-08-01T10:39:49;95790.22;;;30.72;35.68
25420;BME280;13354;48.174;11.566;2022-08-01T10:42:15;95792.00;;;30.77;36.20
25420;BME280;13354;48.174;11.566;2022-08-01T10:44:40;95794.13;;;30.89;36.14
25420;BME280;13354;48.174;11.566;2022-08-01T10:49:31;95789.97;;;31.26;34.74
25420;BME280;13354;48.174;11.566;2022-08-01T10:52:00;95792.25;;;31.33;34.04
25420;BME280;13354;48.174;11.566;2022-08-01T10:54:25;95792.09;;;31.46;34.37
25420;BME280;13354;48.174;11.566;2022-08-01T10:56:51;95787.59;;;31.42;34.29
25420;BME280;13354;48.174;11.566;2022-08-01T10:59:21;95779.03;;;31.87;33.89
25420;BME280;13354;48.174;11.566;2022-08-01T11:02:56;95774.03;;;31.63;33.95
25420;BME280;13354;48.174;11.566;2022-08-01T11:04:51;95779.88;;;31.52;33.82
25420;BME280;13354;48.174;11.566;2022-08-01T11:07:23;95774.22;;;31.58;34.12
25420;BME280;13354;48.174;11.566;2022-08-01T11:09:58;95779.34;;;31.59;33.81
25420;BME280;13354;48.174;11.566;2022-08-01T11:12:37;95763.41;;;31.79;33.67
25420;BME280;13354;48.174;11.566;2022-08-01T11:17:47;95770.00;;;31.77;34.10
25420;BME280;13354;48.174;11.566;2022-08-01T11:20:13;95769.03;;;31.82;33.52
25420;BME280;13354;48.174;11.566;2022-08-01T11:25:23;95754.78;;;32.15;33.71
25420;BME280;13354;48.174;11.566;2022-08-01T11:27:48;95752.47;;;32.26;32.55
25420;BME280;13354;48.174;11.566;2022-08-01T11:32:57;95754.09;;;31.62;33.33
25420;BME280;13354;48.174;11.566;2022-08-01T11:35:22;95735.78;;;31.19;33.92
25420;BME280;13354;48.174;11.566;2022-08-01T11:37:49;95755.88;;;31.41;34.11
25420;BME280;13354;48.174;11.566;2022-08-01T11:40:24;95753.16;;;31.23;34.05
25420;BME280;13354;48.174;11.566;2022-08-01T11:42:50;95757.47;;;31.24;33.45
25420;BME280;13354;48.174;11.566;2022-08-01T11:45:15;95742.03;;;30.85;33.89
25420;BME280;13354;48.174;11.566;2022-08-01T11:47:47;95749.81;;;30.52;34.17
25420;BME280;13354;48.174;11.566;2022-08-01T11:52:59;95744.44;;;30.29;35.20
25420;BME280;13354;48.174;11.566;2022-08-01T11:55:25;95733.75;;;30.59;35.09
25420;BME280;13354;48.174;11.566;2022-08-01T11:57:51;95731.19;;;30.54;34.35
25420;BME280;13354;48.174;11.566;2022-08-01T12:00:23;95730.56;;;30.57;34.67
25420;BME280;13354;48.174;11.566;2022-08-01T12:02:55;95733.50;;;30.78;34.43
25420;BME280;13354;48.174;11.566;2022-08-01T12:05:21;95741.31;;;30.71;34.36
25420;BME280;13354;48.174;11.566;2022-08-01T12:07:49;95736.22;;;30.78;34.62
25420;BME280;13354;48.174;11.566;2022-08-01T12:10:15;95735.72;;;30.67;33.96
25420;BME280;13354;48.174;11.566;2022-08-01T12:15:09;95728.56;;;30.40;34.89
25420;BME280;13354;48.174;11.566;2022-08-01T12:20:00;95724.75;;;30.59;33.42
25420;BME280;13354;48.174;11.566;2022-08-01T12:22:25;95721.78;;;30.86;32.75
25420;BME280;13354;48.174;11.566;2022-08-01T12:24:51;95723.06;;;31.06;33.07
25420;BME280;13354;48.174;11.566;2022-08-01T12:27:26;95719.38;;;31.19;33.39
25420;BME280;13354;48.174;11.566;2022-08-01T12:29:51;95719.84;;;31.39;33.45
25420;BME280;13354;48.174;11.566;2022-08-01T12:32:30;95714.69;;;31.46;32.91
25420;BME280;13354;48.174;11.566;2022-08-01T12:34:57;95705.19;;;31.26;32.72
25420;BME280;13354;48.174;11.566;2022-08-01T12:37:25;95713.91;;;31.19;32.99
25420;BME280;13354;48.174;11.566;2022-08-01T12:39:50;95711.97;;;30.94;33.32
25420;BME280;13354;48.174;11.566;2022-08-01T12:42:16;95709.50;;;30.66;33.09
25420;BME280;13354;48.174;11.566;2022-08-01T12:44:41;95707.56;;;30.58;33.28
25420;BME280;13354;48.174;11.566;2022-08-01T12:47:07;95699.38;;;30.67;33.27
25420;BME280;13354;48.174;11.566;2022-08-01T12:49:34;95696.50;;;30.72;32.49
25420;BME280;13354;48.174;11.566;2022-08-01T12:52:00;95699.41;;;30.93;32.20
25420;BME280;13354;48.174;11.566;2022-08-01T12:54:26;95700.41;;;31.32;32.79
25420;BME280;13354;48.174;11.566;2022-08-01T12:56:51;95691.63;;;31.56;32.06
25420;BME280;13354;48.174;11.566;2022-08-01T12:59:21;95694.41;;;31.47;32.21
25420;BME280;13354;48.174;11.566;2022-08-01T13:01:48;95699.88;;;31.21;32.08
25420;BME280;13354;48.174;11.566;2022-08-01T13:04:13;95696.34;;;31.03;32.10
25420;BME280;13354;48.174;11.566;2022-08-01T13:06:38;95705.69;;;30.76;32.42
25420;BME280;13354;48.174;11.566;2022-08-01T13:09:07;95705.63;;;30.59;32.06
25420;BME280;13354;48.174;11.566;2022-08-01T13:11:32;95698.25;;;30.11;33.26
25420;BME280;13354;48.174;11.566;2022-08-01T13:13:57;95701.34;;;29.78;33.69
25420;BME280;13354;48.174;11.566;2022-08-01T13:16:23;95696.78;;;29.65;34.03
25420;BME280;13354;48.174;11.566;2022-08-01T13:18:50;95704.50;;;29.49;34.65
25420;BME280;13354;48.174;11.566;2022-08-01T13:21:16;95710.41;;;29.20;35.28
25420;BME280;13354;48.174;11.566;2022-08-01T13:24:04;95721.50;;;29.01;35.88
25420;BME280;13354;48.174;11.566;2022-08-01T13:29:15;95718.50;;;28.38;36.76